createdAt,value
2018-12-04T00:02:07.249Z,1.70
2018-12-04T00:04:36.079Z,1.85
2018-12-04T00:07:05.106Z,1.77
2018-12-04T00:09:34.135Z,1.58
2018-12-04T00:12:03.495Z,1.47
2018-12-04T00:14:32.518Z,1.40
2018-12-04T00:17:01.364Z,1.52
2018-12-04T00:19:30.395Z,1.61
2018-12-04T00:21:59.383Z,1.66
2018-12-04T00:24:28.291Z,1.55
2018-12-04T00:26:57.228Z,1.52
2018-12-04T00:29:26.045Z,1.25
2018-12-04T00:31:55.066Z,1.14
2018-12-04T00:34:24.090Z,1.35
2018-12-04T00:36:52.990Z,1.43
2018-12-04T00:39:21.884Z,1.26
2018-12-04T00:41:50.954Z,1.15
2018-12-04T00:44:19.770Z,1.33
2018-12-04T00:46:48.596Z,1.44
2018-12-04T00:49:17.621Z,1.69
2018-12-04T00:51:46.431Z,1.43
2018-12-04T00:54:15.343Z,1.46
2018-12-04T00:56:44.389Z,1.24
2018-12-04T00:59:13.206Z,1.31
2018-12-04T01:01:42.072Z,1.40
2018-12-04T01:04:10.968Z,1.31
2018-12-04T01:06:39.859Z,1.57
2018-12-04T01:09:10.434Z,1.55
2018-12-04T01:11:39.741Z,1.46
2018-12-04T01:14:08.774Z,1.66
2018-12-04T01:16:37.712Z,1.94
2018-12-04T01:19:06.719Z,1.79
2018-12-04T01:21:35.754Z,1.71
2018-12-04T01:24:04.785Z,1.57
2018-12-04T01:26:33.699Z,1.52
2018-12-04T01:29:02.534Z,1.72
2018-12-04T01:31:31.484Z,1.83
2018-12-04T01:34:00.580Z,1.75
2018-12-04T01:36:29.385Z,1.75
2018-12-04T01:38:58.306Z,1.86
2018-12-04T01:41:27.313Z,1.77
2018-12-04T01:43:56.125Z,1.99
2018-12-04T01:46:25.154Z,1.72
2018-12-04T01:48:54.064Z,1.72
2018-12-04T01:51:23.015Z,1.69
2018-12-04T01:53:52.026Z,1.71
2018-12-04T01:56:20.917Z,1.72
2018-12-04T01:58:50.265Z,1.89
2018-12-04T02:01:19.070Z,1.86
2018-12-04T02:03:48.139Z,2.07
2018-12-04T02:06:17.073Z,1.88
2018-12-04T02:08:46.091Z,1.90
2018-12-04T02:11:15.025Z,1.89
2018-12-04T02:13:44.040Z,2.04
2018-12-04T02:16:12.867Z,1.97
2018-12-04T02:18:41.777Z,1.92
2018-12-04T02:21:10.689Z,1.84
2018-12-04T02:23:41.864Z,2.04
2018-12-04T02:26:10.804Z,2.30
2018-12-04T02:28:40.597Z,2.23
2018-12-04T02:31:10.328Z,1.97
2018-12-04T02:33:39.158Z,2.22
2018-12-04T02:36:08.725Z,2.23
2018-12-04T02:38:37.970Z,2.11
2018-12-04T02:41:07.526Z,2.30
2018-12-04T02:43:36.441Z,2.14
2018-12-04T02:46:05.358Z,2.01
2018-12-04T02:48:38.255Z,2.09
2018-12-04T02:51:07.380Z,2.11
2018-12-04T02:53:36.295Z,2.15
2018-12-04T02:56:05.292Z,2.22
2018-12-04T02:58:34.398Z,2.07
2018-12-04T03:01:03.300Z,2.14
2018-12-04T03:03:32.190Z,2.37
2018-12-04T03:06:01.083Z,2.40
2018-12-04T03:08:29.982Z,2.27
2018-12-04T03:10:58.886Z,2.32
2018-12-04T03:13:27.980Z,2.07
2018-12-04T03:15:56.777Z,2.18
2018-12-04T03:18:25.680Z,2.24
2018-12-04T03:20:54.512Z,2.20
2018-12-04T03:23:23.409Z,2.12
2018-12-04T03:25:52.306Z,2.32
2018-12-04T03:28:21.207Z,2.27
2018-12-04T03:30:50.107Z,2.38
2018-12-04T03:33:40.130Z,2.51
2018-12-04T03:36:09.048Z,2.88
2018-12-04T03:38:37.836Z,2.69
2018-12-04T03:41:06.761Z,2.56
2018-12-04T03:43:35.665Z,2.39
2018-12-04T03:46:04.623Z,2.37
2018-12-04T03:48:33.512Z,2.52
2018-12-04T03:51:02.370Z,2.48
2018-12-04T03:53:31.367Z,2.22
2018-12-04T03:56:00.178Z,2.39
2018-12-04T03:58:29.090Z,2.30
2018-12-04T04:00:58.123Z,2.22
2018-12-04T04:03:26.942Z,2.29
2018-12-04T04:05:55.865Z,2.29
2018-12-04T04:08:24.814Z,2.27
2018-12-04T04:10:53.649Z,2.37
2018-12-04T04:13:22.664Z,2.22
2018-12-04T04:15:51.602Z,2.15
2018-12-04T04:18:20.622Z,2.39
2018-12-04T04:20:49.499Z,2.29
2018-12-04T04:23:18.381Z,2.32
2018-12-04T04:25:47.295Z,2.46
2018-12-04T04:28:16.407Z,2.16
2018-12-04T04:30:45.445Z,2.07
2018-12-04T04:33:14.253Z,2.19
2018-12-04T04:35:43.169Z,2.38
2018-12-04T04:38:12.073Z,2.56
2018-12-04T04:40:41.023Z,2.46
2018-12-04T04:43:09.920Z,2.07
2018-12-04T04:45:38.966Z,2.23
2018-12-04T04:48:07.970Z,2.19
2018-12-04T04:50:36.869Z,2.24
2018-12-04T04:53:05.683Z,2.24
2018-12-04T04:55:34.589Z,2.43
2018-12-04T04:58:03.522Z,2.45
2018-12-04T05:00:32.329Z,2.57
2018-12-04T05:03:01.138Z,2.53
2018-12-04T05:05:34.566Z,2.64
2018-12-04T05:08:03.529Z,2.62
2018-12-04T05:10:32.457Z,2.36
2018-12-04T05:13:01.405Z,2.51
2018-12-04T05:15:30.482Z,2.24
2018-12-04T05:17:59.309Z,2.37
2018-12-04T05:20:28.335Z,2.41
2018-12-04T05:22:57.373Z,2.36
2018-12-04T05:25:26.318Z,2.45
2018-12-04T05:27:55.141Z,2.46
2018-12-04T05:30:24.073Z,2.52
2018-12-04T05:32:52.876Z,2.59
2018-12-04T05:35:21.770Z,2.45
2018-12-04T05:37:50.778Z,2.55
2018-12-04T05:40:20.382Z,2.48
2018-12-04T05:42:49.460Z,2.69
2018-12-04T05:45:18.850Z,2.39
2018-12-04T05:47:47.661Z,2.55
2018-12-04T05:50:17.230Z,2.56
2018-12-04T05:52:56.012Z,2.36
2018-12-04T05:55:24.834Z,2.57
2018-12-04T05:57:53.737Z,2.57
2018-12-04T06:00:22.697Z,2.48
2018-12-04T06:02:51.601Z,2.49
2018-12-04T06:05:20.509Z,2.53
2018-12-04T06:07:49.469Z,2.49
2018-12-04T06:10:18.392Z,2.68
2018-12-04T06:12:47.195Z,2.64
2018-12-04T06:15:16.442Z,2.77
2018-12-04T06:17:45.401Z,2.80
2018-12-04T06:20:14.469Z,2.64
2018-12-04T06:22:43.549Z,2.74
2018-12-04T06:25:12.437Z,3.01
2018-12-04T06:27:41.367Z,3.00
2018-12-04T06:30:10.368Z,3.06
2018-12-04T06:32:39.460Z,2.98
2018-12-04T06:35:08.420Z,3.00
2018-12-04T06:37:37.375Z,3.07
2018-12-04T06:40:06.389Z,3.04
2018-12-04T06:42:35.386Z,2.95
2018-12-04T06:45:04.881Z,2.91
2018-12-04T06:47:33.857Z,2.98
2018-12-04T06:50:03.906Z,3.08
2018-12-04T06:52:33.015Z,3.02
2018-12-04T06:55:01.933Z,3.04
2018-12-04T06:57:31.863Z,3.21
2018-12-04T07:00:00.799Z,3.15
2018-12-04T07:02:29.919Z,3.29
2018-12-04T07:04:58.825Z,3.25
2018-12-04T07:07:27.731Z,3.19
2018-12-04T07:09:56.637Z,3.26
2018-12-04T07:12:25.565Z,3.21
2018-12-04T07:14:54.681Z,3.27
2018-12-04T07:17:23.483Z,3.20
2018-12-04T07:19:52.505Z,3.38
2018-12-04T07:22:21.312Z,3.33
2018-12-04T07:24:50.212Z,3.42
2018-12-04T07:27:19.271Z,3.48
2018-12-04T07:29:48.165Z,3.61
2018-12-04T07:32:17.073Z,3.69
2018-12-04T07:34:45.881Z,3.75
2018-12-04T07:37:15.200Z,3.70
2018-12-04T07:39:44.298Z,3.68
2018-12-04T07:42:13.137Z,3.75
2018-12-04T07:44:41.959Z,3.86
2018-12-04T07:47:10.863Z,4.04
2018-12-04T07:49:39.811Z,4.10
2018-12-04T07:52:08.865Z,4.08
2018-12-04T07:54:37.653Z,4.22
2018-12-04T07:57:06.487Z,4.53
2018-12-04T07:59:35.365Z,4.43
2018-12-04T08:02:04.234Z,4.50
2018-12-04T08:04:33.256Z,4.63
2018-12-04T08:07:02.199Z,4.68
2018-12-04T08:09:31.268Z,4.80
2018-12-04T08:12:00.274Z,4.80
2018-12-04T08:14:29.271Z,4.92
2018-12-04T08:16:58.215Z,5.10
2018-12-04T08:19:27.051Z,5.12
2018-12-04T08:21:55.907Z,5.21
2018-12-04T08:24:24.832Z,5.30
2018-12-04T08:26:53.647Z,5.48
2018-12-04T08:29:22.567Z,5.43
2018-12-04T08:31:51.567Z,5.50
2018-12-04T08:34:20.585Z,5.56
2018-12-04T08:36:49.522Z,5.62
2018-12-04T08:39:18.493Z,5.57
2018-12-04T08:41:47.410Z,5.67
2018-12-04T08:44:16.226Z,5.64
2018-12-04T08:46:45.151Z,5.71
2018-12-04T08:49:14.134Z,5.66
2018-12-04T08:51:42.966Z,5.70
2018-12-04T08:54:11.870Z,5.80
2018-12-04T08:56:40.884Z,5.91
2018-12-04T08:59:09.721Z,5.81
2018-12-04T09:01:38.539Z,5.96
2018-12-04T09:04:07.533Z,5.92
2018-12-04T09:06:36.648Z,6.00
2018-12-04T09:09:08.850Z,6.12
2018-12-04T09:11:37.680Z,6.00
2018-12-04T09:14:06.891Z,6.03
2018-12-04T09:16:35.838Z,6.13
2018-12-04T09:19:04.754Z,6.19
2018-12-04T09:21:33.861Z,6.06
2018-12-04T09:24:02.924Z,6.15
2018-12-04T09:26:32.007Z,6.22
2018-12-04T09:29:00.930Z,6.24
2018-12-04T09:31:29.859Z,6.21
2018-12-04T09:33:58.858Z,6.19
2018-12-04T09:36:27.801Z,6.21
2018-12-04T09:38:56.720Z,6.24
2018-12-04T09:41:32.239Z,6.19
2018-12-04T09:44:01.089Z,6.31
2018-12-04T09:46:30.145Z,6.33
2018-12-04T09:48:59.148Z,6.32
2018-12-04T09:51:28.185Z,6.35
2018-12-04T09:53:57.111Z,6.50
2018-12-04T09:56:26.141Z,6.71
2018-12-04T09:58:55.065Z,6.66
2018-12-04T10:01:24.026Z,6.52
2018-12-04T10:03:53.003Z,6.47
2018-12-04T10:06:21.937Z,6.53
2018-12-04T10:08:50.808Z,6.57
2018-12-04T10:11:19.729Z,6.68
2018-12-04T10:13:48.732Z,6.58
2018-12-04T10:16:17.667Z,6.67
2018-12-04T10:18:47.796Z,6.73
2018-12-04T10:21:16.912Z,6.78
2018-12-04T10:23:45.871Z,6.86
2018-12-04T10:26:14.931Z,6.80
2018-12-04T10:28:43.959Z,6.85
2018-12-04T10:31:12.982Z,7.07
2018-12-04T10:33:42.159Z,7.01
2018-12-04T10:36:12.052Z,7.09
2018-12-04T10:38:41.053Z,7.12
2018-12-04T10:41:10.250Z,7.26
2018-12-04T10:43:39.172Z,7.36
2018-12-04T10:46:08.065Z,7.37
2018-12-04T10:48:37.086Z,7.37
2018-12-04T10:51:06.230Z,7.48
2018-12-04T10:53:35.187Z,7.35
2018-12-04T10:56:04.131Z,7.43
2018-12-04T10:58:33.148Z,7.39
2018-12-04T11:01:06.545Z,7.56
2018-12-04T11:03:37.467Z,7.49
2018-12-04T11:06:06.947Z,7.54
2018-12-04T11:08:35.989Z,7.57
2018-12-04T11:11:04.785Z,7.51
2018-12-04T11:13:33.747Z,7.53
2018-12-04T11:16:03.017Z,7.50
2018-12-04T11:18:31.940Z,7.53
2018-12-04T11:21:01.647Z,7.49
2018-12-04T11:23:30.901Z,7.47
2018-12-04T11:25:59.755Z,7.50
2018-12-04T11:28:28.780Z,7.53
2018-12-04T11:30:57.792Z,7.63
2018-12-04T11:33:26.809Z,7.56
2018-12-04T11:35:55.811Z,7.55
2018-12-04T11:38:24.739Z,7.69
2018-12-04T11:40:53.918Z,7.70
2018-12-04T11:43:22.708Z,7.52
2018-12-04T11:45:51.663Z,7.50
2018-12-04T11:48:20.485Z,7.50
2018-12-04T11:50:49.383Z,7.57
2018-12-04T11:53:18.447Z,7.54
2018-12-04T11:55:47.321Z,7.52
2018-12-04T11:58:16.233Z,7.56
2018-12-04T12:00:45.201Z,7.57
2018-12-04T12:03:14.039Z,7.59
2018-12-04T12:05:42.968Z,7.59
2018-12-04T12:08:11.870Z,7.53
2018-12-04T12:10:40.744Z,7.55
2018-12-04T12:13:09.957Z,7.54
2018-12-04T12:15:39.009Z,7.66
2018-12-04T12:18:08.049Z,7.69
2018-12-04T12:20:36.858Z,7.56
2018-12-04T12:23:05.669Z,7.61
2018-12-04T12:25:34.575Z,7.67
2018-12-04T12:28:03.707Z,7.56
2018-12-04T12:30:33.309Z,7.61
2018-12-04T12:33:02.127Z,7.55
2018-12-04T12:35:31.174Z,7.58
2018-12-04T12:38:00.188Z,7.61
2018-12-04T12:40:31.208Z,7.65
2018-12-04T12:43:00.145Z,7.65
2018-12-04T12:45:29.133Z,7.62
2018-12-04T12:47:58.073Z,7.70
2018-12-04T12:50:26.920Z,7.72
2018-12-04T12:52:55.865Z,7.73
2018-12-04T12:55:24.941Z,7.76
2018-12-04T12:57:54.061Z,7.79
2018-12-04T13:00:23.001Z,7.70
2018-12-04T13:02:52.253Z,7.74
2018-12-04T13:05:21.281Z,7.72
2018-12-04T13:07:53.173Z,7.68
2018-12-04T13:10:22.242Z,7.67
2018-12-04T13:12:51.337Z,7.68
2018-12-04T13:15:20.452Z,7.72
2018-12-04T13:17:49.359Z,7.72
2018-12-04T13:20:19.234Z,7.70
2018-12-04T13:22:48.561Z,7.67
2018-12-04T13:25:17.498Z,7.59
2018-12-04T13:27:46.551Z,7.50
2018-12-04T13:30:15.804Z,7.51
2018-12-04T13:32:44.885Z,7.54
2018-12-04T13:35:13.757Z,7.53
2018-12-04T13:37:42.937Z,7.54
2018-12-04T13:40:13.341Z,7.48
2018-12-04T13:42:42.913Z,7.43
2018-12-04T13:45:12.291Z,7.46
2018-12-04T13:47:42.018Z,7.47
2018-12-04T13:50:11.732Z,7.47
2018-12-04T13:52:41.206Z,7.41
2018-12-04T13:55:10.330Z,7.34
2018-12-04T13:57:39.542Z,7.36
2018-12-04T14:00:09.172Z,7.34
2018-12-04T14:02:38.596Z,7.34
2018-12-04T14:05:09.008Z,7.30
2018-12-04T14:07:38.762Z,7.29
2018-12-04T14:10:09.268Z,7.29
2018-12-04T14:12:38.299Z,7.27
2018-12-04T14:15:07.660Z,7.24
2018-12-04T14:17:37.318Z,7.11
2018-12-04T14:20:07.959Z,7.11
2018-12-04T14:22:37.080Z,7.07
2018-12-04T14:25:06.330Z,7.02
2018-12-04T14:27:35.952Z,7.06
2018-12-04T14:30:08.877Z,7.05
2018-12-04T14:32:37.908Z,6.89
2018-12-04T14:35:07.063Z,6.83
2018-12-04T14:37:36.307Z,6.80
2018-12-04T14:40:06.310Z,6.71
2018-12-04T14:42:35.586Z,6.63
2018-12-04T14:45:05.768Z,6.70
2018-12-04T14:47:34.773Z,6.48
2018-12-04T14:50:05.098Z,6.45
2018-12-04T14:52:34.276Z,6.57
2018-12-04T14:55:03.726Z,6.50
2018-12-04T14:57:32.716Z,6.37
2018-12-04T15:00:02.066Z,6.36
2018-12-04T15:02:31.104Z,6.49
2018-12-04T15:05:00.686Z,6.36
2018-12-04T15:07:29.617Z,6.30
2018-12-04T15:09:58.900Z,6.13
2018-12-04T15:12:27.998Z,6.15
2018-12-04T15:14:57.092Z,6.06
2018-12-04T15:17:26.914Z,6.04
2018-12-04T15:19:56.316Z,6.12
2018-12-04T15:22:25.503Z,6.12
2018-12-04T15:24:54.983Z,6.20
2018-12-04T15:27:24.688Z,6.11
2018-12-04T15:29:54.253Z,6.27
2018-12-04T15:32:23.791Z,5.94
2018-12-04T15:34:53.623Z,5.84
2018-12-04T15:37:22.989Z,5.97
2018-12-04T15:39:52.802Z,5.90
2018-12-04T15:42:21.999Z,5.80
2018-12-04T15:44:51.527Z,5.74
2018-12-04T15:47:20.800Z,6.52
2018-12-04T15:49:50.400Z,6.15
2018-12-04T15:52:19.749Z,6.14
2018-12-04T15:54:48.781Z,6.22
2018-12-04T15:57:17.898Z,6.03
2018-12-04T15:59:47.110Z,5.92
2018-12-04T16:02:16.030Z,5.94
2018-12-04T16:04:45.465Z,5.85
2018-12-04T16:07:14.376Z,5.78
2018-12-04T16:09:43.248Z,5.64
2018-12-04T16:12:12.790Z,5.64
2018-12-04T16:14:41.728Z,5.48
2018-12-04T16:17:15.222Z,5.57
2018-12-04T16:19:41.626Z,5.41
2018-12-04T16:22:10.703Z,5.32
2018-12-04T16:24:39.761Z,5.37
2018-12-04T16:27:08.872Z,5.28
2018-12-04T16:29:37.909Z,5.24
2018-12-04T16:32:07.163Z,5.32
2018-12-04T16:34:36.733Z,5.15
2018-12-04T16:37:05.870Z,5.25
2018-12-04T16:39:34.959Z,5.21
2018-12-04T16:42:04.179Z,4.95
2018-12-04T16:44:33.329Z,5.08
2018-12-04T16:47:02.235Z,5.05
2018-12-04T16:49:31.153Z,4.82
2018-12-04T16:52:00.627Z,5.14
2018-12-04T16:54:30.086Z,5.08
2018-12-04T16:56:59.109Z,5.05
2018-12-04T16:59:28.465Z,5.02
2018-12-04T17:01:57.512Z,5.13
2018-12-04T17:04:26.468Z,5.15
2018-12-04T17:06:55.899Z,5.11
2018-12-04T17:09:25.302Z,5.03
2018-12-04T17:11:54.399Z,5.00
2018-12-04T17:14:23.496Z,5.15
2018-12-04T17:16:52.398Z,5.34
2018-12-04T17:19:21.462Z,5.11
2018-12-04T17:21:50.471Z,4.92
2018-12-04T17:24:19.572Z,4.80
2018-12-04T17:26:48.664Z,4.77
2018-12-04T17:29:17.681Z,4.74
2018-12-04T17:31:46.805Z,4.76
2018-12-04T17:34:16.126Z,4.70
2018-12-04T17:36:45.029Z,4.69
2018-12-04T17:39:14.022Z,4.81
2018-12-04T17:41:42.949Z,4.66
2018-12-04T17:44:12.166Z,4.59
2018-12-04T17:46:41.413Z,4.64
2018-12-04T17:49:10.473Z,4.70
2018-12-04T17:51:39.697Z,4.85
2018-12-04T17:54:08.511Z,4.61
2018-12-04T17:56:37.439Z,4.64
2018-12-04T17:59:06.490Z,4.52
2018-12-04T18:01:35.887Z,4.29
2018-12-04T18:04:04.861Z,4.45
2018-12-04T18:06:33.966Z,4.46
2018-12-04T18:09:04.873Z,4.36
2018-12-04T18:11:33.920Z,4.55
2018-12-04T18:14:03.013Z,4.40
2018-12-04T18:16:34.201Z,4.33
2018-12-04T18:19:05.275Z,4.18
2018-12-04T18:21:35.049Z,4.14
2018-12-04T18:24:04.984Z,4.34
2018-12-04T18:26:34.752Z,4.28
2018-12-04T18:29:04.770Z,3.98
2018-12-04T18:31:34.009Z,4.14
2018-12-04T18:34:03.374Z,4.13
2018-12-04T18:36:33.067Z,4.05
2018-12-04T18:39:02.263Z,4.06
2018-12-04T18:41:32.347Z,4.23
2018-12-04T18:44:02.221Z,4.17
2018-12-04T18:46:31.965Z,4.17
2018-12-04T18:49:00.963Z,4.30
2018-12-04T18:51:30.282Z,4.29
2018-12-04T18:53:59.281Z,4.08
2018-12-04T18:56:28.214Z,4.02
2018-12-04T18:58:57.329Z,3.84
2018-12-04T19:01:26.250Z,3.86
2018-12-04T19:03:55.100Z,3.81
2018-12-04T19:06:24.840Z,3.79
2018-12-04T19:08:53.752Z,4.12
2018-12-04T19:11:31.220Z,4.27
2018-12-04T19:14:00.110Z,4.14
2018-12-04T19:16:29.029Z,3.83
2018-12-04T19:18:57.982Z,3.90
2018-12-04T19:21:27.085Z,4.02
2018-12-04T19:23:55.903Z,4.01
2018-12-04T19:26:24.837Z,3.85
2018-12-04T19:28:53.959Z,3.79
2018-12-04T19:31:22.885Z,3.83
2018-12-04T19:33:52.773Z,3.96
2018-12-04T19:36:22.237Z,3.93
2018-12-04T19:38:52.617Z,4.02
2018-12-04T19:41:21.518Z,4.01
2018-12-04T19:43:56.339Z,3.92
2018-12-04T19:46:22.590Z,3.97
2018-12-04T19:48:51.905Z,3.77
2018-12-04T19:51:20.819Z,3.54
2018-12-04T19:53:49.900Z,3.68
2018-12-04T19:56:18.867Z,3.75
2018-12-04T19:58:47.774Z,3.84
2018-12-04T20:01:17.100Z,3.85
2018-12-04T20:03:46.002Z,3.74
2018-12-04T20:06:14.822Z,3.92
2018-12-04T20:08:52.166Z,3.94
2018-12-04T20:11:21.351Z,4.14
2018-12-04T20:13:50.467Z,4.37
2018-12-04T20:16:19.486Z,4.25
2018-12-04T20:18:48.425Z,4.00
2018-12-04T20:21:17.334Z,3.80
2018-12-04T20:23:46.785Z,3.88
2018-12-04T20:26:15.705Z,4.08
2018-12-04T20:28:44.756Z,4.00
2018-12-04T20:31:13.821Z,4.12
2018-12-04T20:33:43.116Z,4.15
2018-12-04T20:36:12.038Z,4.23
2018-12-04T20:38:41.837Z,3.92
2018-12-04T20:41:10.855Z,4.04
2018-12-04T20:43:40.093Z,4.23
2018-12-04T20:46:09.433Z,4.19
2018-12-04T20:48:38.378Z,4.26
2018-12-04T20:51:07.609Z,4.19
2018-12-04T20:53:36.422Z,4.35
2018-12-04T20:56:05.430Z,4.22
2018-12-04T20:58:34.336Z,4.36
2018-12-04T21:01:03.401Z,4.42
2018-12-04T21:03:32.605Z,4.28
2018-12-04T21:06:01.517Z,4.44
2018-12-04T21:08:30.517Z,4.47
2018-12-04T21:10:59.418Z,4.31
2018-12-04T21:13:28.448Z,4.46
2018-12-04T21:15:57.377Z,4.45
2018-12-04T21:18:26.381Z,4.33
2018-12-04T21:20:55.214Z,4.32
2018-12-04T21:23:24.129Z,4.23
2018-12-04T21:25:53.354Z,4.40
2018-12-04T21:28:22.842Z,4.40
2018-12-04T21:30:57.641Z,4.38
2018-12-04T21:33:32.169Z,4.37
2018-12-04T21:36:06.516Z,4.38
2018-12-04T21:38:40.981Z,4.39
2018-12-04T21:41:15.596Z,4.45
2018-12-04T21:43:50.043Z,4.46
2018-12-04T21:46:24.277Z,4.51
2018-12-04T21:48:53.199Z,4.60
2018-12-04T21:51:22.192Z,4.72
2018-12-04T21:53:50.998Z,4.87
2018-12-04T21:56:19.997Z,4.85
2018-12-04T21:58:49.102Z,4.90
2018-12-04T22:01:17.914Z,4.90
2018-12-04T22:03:47.068Z,4.91
2018-12-04T22:06:15.958Z,5.08
2018-12-04T22:08:44.801Z,5.10
2018-12-04T22:11:14.019Z,5.13
2018-12-04T22:13:42.934Z,5.23
2018-12-04T22:16:11.941Z,5.17
2018-12-04T22:18:40.866Z,5.27
2018-12-04T22:21:09.709Z,5.24
2018-12-04T22:23:38.590Z,5.26
2018-12-04T22:26:08.106Z,5.30
2018-12-04T22:28:37.026Z,5.17
2018-12-04T22:31:05.948Z,5.15
2018-12-04T22:33:34.843Z,5.30
2018-12-04T22:36:03.692Z,5.24
2018-12-04T22:38:32.727Z,5.23
2018-12-04T22:41:01.554Z,5.30
2018-12-04T22:43:30.566Z,5.35
2018-12-04T22:45:59.494Z,5.37
2018-12-04T22:48:28.412Z,5.34
2018-12-04T22:50:57.201Z,5.35
2018-12-04T22:53:26.001Z,5.36
2018-12-04T22:55:54.917Z,5.38
2018-12-04T22:58:23.826Z,5.41
2018-12-04T23:00:52.809Z,5.53
2018-12-04T23:03:23.477Z,5.52
2018-12-04T23:05:52.665Z,5.50
2018-12-04T23:08:21.506Z,5.58
2018-12-04T23:10:50.439Z,5.59
2018-12-04T23:13:19.393Z,5.63
2018-12-04T23:15:48.758Z,5.64
2018-12-04T23:18:17.561Z,5.64
2018-12-04T23:20:46.384Z,5.65
2018-12-04T23:23:15.384Z,5.74
2018-12-04T23:25:44.293Z,5.85
2018-12-04T23:28:13.204Z,5.85
2018-12-04T23:30:42.000Z,5.79
2018-12-04T23:33:10.822Z,5.73
2018-12-04T23:35:39.981Z,5.66
2018-12-04T23:38:08.832Z,5.72
2018-12-04T23:40:37.737Z,5.81
2018-12-04T23:43:06.556Z,5.89
2018-12-04T23:45:35.676Z,5.77
2018-12-04T23:48:04.708Z,5.77
2018-12-04T23:50:33.645Z,5.82
2018-12-04T23:53:02.543Z,5.87
2018-12-04T23:55:31.516Z,5.93
2018-12-04T23:58:00.579Z,5.77
